^^
Saratoga-Weather Station Historical Data
Daily Summary for February 24, 2020 Units:  Both    English   Metric
Daily Weekly Monthly Yearly Custom
  High: Low: Average:
Temperature: 79.9 °F /  26.6 °C 61.7 °F /  16.5 °C 70 °F /  21.1 °C
Dew Point: 59.9 °F /  15.5 °C 48.7 °F /  9.3 °C 54.3 °F /  12.4 °C
Humidity: 81% 40% 59%
Wind Speed: 14.1mph /  22.7km/h - 2.4mph /  3.9km/h
Wind Gust: 18mph /  29km/h - -
Wind- - West
Pressure: 29.9 in /  1012.9 hPa 29.9 in /  1010.8 hPa -
Precipitation: 0 in /  0.0 mm    
Historical Graphs
 
 
Tabular Data for February 24, 2020
Time Temperature Dew Point Pressure Wind Wind Speed Wind Gust Humidity Rainfall Rate (Hourly) solar
00:01 69.4 °F /  20.8 °C 52.5 °F /  11.4 °C 29.9in /  1011.9hPa Calm     55% 0in /  0.0mm 0 W/m2
00:06 69.3 °F /  20.7 °C 52.9 °F /  11.6 °C 29.9in /  1011.9hPa Calm     56% 0in /  0.0mm 0 W/m2
00:11 69.1 °F /  20.6 °C 52.7 °F /  11.5 °C 29.9in /  1011.9hPa Calm     56% 0in /  0.0mm 0 W/m2
00:16 68.7 °F /  20.4 °C 52.9 °F /  11.6 °C 29.9in /  1011.9hPa Calm     57% 0in /  0.0mm 0 W/m2
00:21 68.5 °F /  20.3 °C 52.7 °F /  11.5 °C 29.9in /  1011.9hPa Calm     57% 0in /  0.0mm 0 W/m2
00:26 68.4 °F /  20.2 °C 52.5 °F /  11.4 °C 29.9in /  1011.9hPa Calm     57% 0in /  0.0mm 0 W/m2
00:31 68.2 °F /  20.1 °C 52.9 °F /  11.6 °C 29.9in /  1011.9hPa Calm     58% 0in /  0.0mm 0 W/m2
00:36 67.8 °F /  19.9 °C 52.9 °F /  11.6 °C 29.9in /  1011.9hPa Calm     59% 0in /  0.0mm 0 W/m2
00:41 67.6 °F /  19.8 °C 52.9 °F /  11.6 °C 29.9in /  1011.9hPa Calm     59% 0in /  0.0mm 0 W/m2
00:46 67.5 °F /  19.7 °C 52.7 °F /  11.5 °C 29.9in /  1011.9hPa Calm     59% 0in /  0.0mm 0 W/m2
00:51 67.3 °F /  19.6 °C 52.5 °F /  11.4 °C 29.9in /  1011.9hPa Calm     59% 0in /  0.0mm 0 W/m2
00:56 66.7 °F /  19.3 °C 52.3 °F /  11.3 °C 29.9in /  1011.9hPa Calm     60% 0in /  0.0mm 0 W/m2
01:01 66.6 °F /  19.2 °C 52.2 °F /  11.2 °C 29.9in /  1011.9hPa Calm     60% 0in /  0.0mm 0 W/m2
01:11 66 °F /  18.9 °C 52.7 °F /  11.5 °C 29.9in /  1011.9hPa Calm     62% 0in /  0.0mm 0 W/m2
01:16 66 °F /  18.9 °C 52.7 °F /  11.5 °C 29.9in /  1011.9hPa Calm     62% 0in /  0.0mm 0 W/m2
01:22 66 °F /  18.9 °C 53.1 °F /  11.7 °C 29.9in /  1011.9hPa Calm     63% 0in /  0.0mm 0 W/m2
01:27 65.8 °F /  18.8 °C 52.9 °F /  11.6 °C 29.9in /  1011.9hPa Calm     63% 0in /  0.0mm 0 W/m2
01:32 65.8 °F /  18.8 °C 52.9 °F /  11.6 °C 29.9in /  1011.9hPa WSW 0.9mph /  1.4km/h 2mph /  3.2km/h 63% 0in /  0.0mm 0 W/m2
01:37 65.8 °F /  18.8 °C 52.9 °F /  11.6 °C 29.9in /  1011.9hPa Calm   1mph /  1.6km/h 63% 0in /  0.0mm 0 W/m2
01:42 66 °F /  18.9 °C 53.1 °F /  11.7 °C 29.9in /  1011.9hPa Calm     63% 0in /  0.0mm 0 W/m2
01:47 65.8 °F /  18.8 °C 52.9 °F /  11.6 °C 29.9in /  1011.9hPa WSW 0.9mph /  1.4km/h 1mph /  1.6km/h 63% 0in /  0.0mm 0 W/m2
01:52 65.8 °F /  18.8 °C 52.9 °F /  11.6 °C 29.9in /  1011.9hPa Calm   1mph /  1.6km/h 63% 0in /  0.0mm 0 W/m2
01:57 65.8 °F /  18.8 °C 53.2 °F /  11.8 °C 29.9in /  1011.9hPa Calm     64% 0in /  0.0mm 0 W/m2
02:02 65.7 °F /  18.7 °C 53.2 °F /  11.8 °C 29.9in /  1011.9hPa Calm   1mph /  1.6km/h 64% 0in /  0.0mm 0 W/m2
02:07 65.5 °F /  18.6 °C 53.1 °F /  11.7 °C 29.9in /  1011.9hPa Calm     64% 0in /  0.0mm 0 W/m2
02:12 65.3 °F /  18.5 °C 53.2 °F /  11.8 °C 29.9in /  1011.9hPa Calm     65% 0in /  0.0mm 0 W/m2
02:17 64.9 °F /  18.3 °C 52.9 °F /  11.6 °C 29.9in /  1011.9hPa Calm     65% 0in /  0.0mm 0 W/m2
02:22 64.8 °F /  18.2 °C 53.1 °F /  11.7 °C 29.9in /  1011.9hPa Calm     66% 0in /  0.0mm 0 W/m2
02:27 64.6 °F /  18.1 °C 52.9 °F /  11.6 °C 29.9in /  1011.9hPa Calm     66% 0in /  0.0mm 0 W/m2
02:32 64.4 °F /  18 °C 52.9 °F /  11.6 °C 29.9in /  1011.9hPa Calm     66% 0in /  0.0mm 0 W/m2
02:37 64.2 °F /  17.9 °C 52.2 °F /  11.2 °C 29.9in /  1011.9hPa Calm     65% 0in /  0.0mm 0 W/m2
02:42 64.2 °F /  17.9 °C 52.2 °F /  11.2 °C 29.9in /  1011.9hPa Calm     65% 0in /  0.0mm 0 W/m2
02:47 64.4 °F /  18 °C 52.3 °F /  11.3 °C 29.9in /  1011.5hPa Calm     65% 0in /  0.0mm 0 W/m2
02:52 64.4 °F /  18 °C 52.3 °F /  11.3 °C 29.9in /  1011.5hPa Calm     65% 0in /  0.0mm 0 W/m2
02:57 64.4 °F /  18 °C 52.9 °F /  11.6 °C 29.9in /  1011.5hPa Calm     66% 0in /  0.0mm 0 W/m2
03:02 64.2 °F /  17.9 °C 52.7 °F /  11.5 °C 29.9in /  1011.5hPa Calm     66% 0in /  0.0mm 0 W/m2
03:07 64 °F /  17.8 °C 52.5 °F /  11.4 °C 29.9in /  1011.5hPa Calm     66% 0in /  0.0mm 0 W/m2
03:12 64 °F /  17.8 °C 52.5 °F /  11.4 °C 29.9in /  1011.5hPa Calm     66% 0in /  0.0mm 0 W/m2
03:17 63.9 °F /  17.7 °C 52.7 °F /  11.5 °C 29.9in /  1011.5hPa Calm     67% 0in /  0.0mm 0 W/m2
03:22 63.9 °F /  17.7 °C 52.7 °F /  11.5 °C 29.9in /  1011.5hPa Calm     67% 0in /  0.0mm 0 W/m2
03:27 63.7 °F /  17.6 °C 52.5 °F /  11.4 °C 29.9in /  1011.5hPa Calm     67% 0in /  0.0mm 0 W/m2
03:32 63.7 °F /  17.6 °C 52.5 °F /  11.4 °C 29.9in /  1011.5hPa Calm     67% 0in /  0.0mm 0 W/m2
03:37 63.3 °F /  17.4 °C 52.2 °F /  11.2 °C 29.9in /  1011.5hPa Calm     67% 0in /  0.0mm 0 W/m2
03:42 63.3 °F /  17.4 °C 52.2 °F /  11.2 °C 29.9in /  1011.5hPa Calm     67% 0in /  0.0mm 0 W/m2
03:47 63.1 °F /  17.3 °C 52 °F /  11.1 °C 29.9in /  1011.5hPa Calm     67% 0in /  0.0mm 0 W/m2
03:52 63 °F /  17.2 °C 51.8 °F /  11 °C 29.9in /  1011.2hPa Calm     67% 0in /  0.0mm 0 W/m2
03:57 62.6 °F /  17 °C 52 °F /  11.1 °C 29.9in /  1011.2hPa Calm     68% 0in /  0.0mm 0 W/m2
04:02 62.4 °F /  16.9 °C 51.8 °F /  11 °C 29.9in /  1011.2hPa Calm     68% 0in /  0.0mm 0 W/m2
04:07 62.2 °F /  16.8 °C 51.6 °F /  10.9 °C 29.9in /  1011.2hPa Calm     68% 0in /  0.0mm 0 W/m2
04:12 62.2 °F /  16.8 °C 51.6 °F /  10.9 °C 29.9in /  1011.2hPa Calm     68% 0in /  0.0mm 0 W/m2
04:17 62.1 °F /  16.7 °C 51.4 °F /  10.8 °C 29.9in /  1011.2hPa Calm     68% 0in /  0.0mm 0 W/m2
04:22 62.1 °F /  16.7 °C 51.8 °F /  11 °C 29.9in /  1011.2hPa Calm     69% 0in /  0.0mm 0 W/m2
04:27 62.1 °F /  16.7 °C 51.4 °F /  10.8 °C 29.9in /  1011.2hPa Calm     68% 0in /  0.0mm 0 W/m2
04:32 61.9 °F /  16.6 °C 51.6 °F /  10.9 °C 29.9in /  1011.2hPa Calm     69% 0in /  0.0mm 0 W/m2
04:37 61.7 °F /  16.5 °C 51.4 °F /  10.8 °C 29.9in /  1011.2hPa Calm     69% 0in /  0.0mm 0 W/m2
04:42 61.7 °F /  16.5 °C 51.4 °F /  10.8 °C 29.9in /  1011.2hPa Calm     69% 0in /  0.0mm 0 W/m2
04:47 61.7 °F /  16.5 °C 51.4 °F /  10.8 °C 29.9in /  1011.2hPa Calm     69% 0in /  0.0mm 0 W/m2
04:52 61.7 °F /  16.5 °C 51.4 °F /  10.8 °C 29.9in /  1011.2hPa Calm     69% 0in /  0.0mm 0 W/m2
04:57 61.7 °F /  16.5 °C 51.4 °F /  10.8 °C 29.9in /  1011.2hPa Calm     69% 0in /  0.0mm 0 W/m2
05:02 61.7 °F /  16.5 °C 51.8 °F /  11 °C 29.9in /  1011.2hPa Calm     70% 0in /  0.0mm 0 W/m2
05:07 61.7 °F /  16.5 °C 51.8 °F /  11 °C 29.9in /  1011.2hPa Calm     70% 0in /  0.0mm 0 W/m2
05:12 61.7 °F /  16.5 °C 51.8 °F /  11 °C 29.9in /  1011.2hPa Calm     70% 0in /  0.0mm 0 W/m2
05:17 61.7 °F /  16.5 °C 52.2 °F /  11.2 °C 29.9in /  1010.8hPa Calm     71% 0in /  0.0mm 0 W/m2
05:22 61.7 °F /  16.5 °C 51.8 °F /  11 °C 29.9in /  1011.2hPa Calm     70% 0in /  0.0mm 0 W/m2
05:27 61.9 °F /  16.6 °C 52 °F /  11.1 °C 29.9in /  1011.2hPa Calm     70% 0in /  0.0mm 0 W/m2
05:32 62.1 °F /  16.7 °C 51.8 °F /  11 °C 29.9in /  1011.2hPa Calm     69% 0in /  0.0mm 0 W/m2
05:37 62.2 °F /  16.8 °C 51.6 °F /  10.9 °C 29.9in /  1010.8hPa Calm     68% 0in /  0.0mm 0 W/m2
05:42 62.2 °F /  16.8 °C 51.6 °F /  10.9 °C 29.9in /  1011.2hPa Calm     68% 0in /  0.0mm 0 W/m2
05:47 62.4 °F /  16.9 °C 51.8 °F /  11 °C 29.9in /  1011.2hPa Calm     68% 0in /  0.0mm 0 W/m2
05:52 62.4 °F /  16.9 °C 51.8 °F /  11 °C 29.9in /  1011.2hPa Calm     68% 0in /  0.0mm 0 W/m2
05:57 62.8 °F /  17.1 °C 51.6 °F /  10.9 °C 29.9in /  1011.2hPa Calm     67% 0in /  0.0mm 0 W/m2
06:02 62.8 °F /  17.1 °C 51.6 °F /  10.9 °C 29.9in /  1011.2hPa Calm     67% 0in /  0.0mm 0 W/m2
06:07 62.8 °F /  17.1 °C 51.6 °F /  10.9 °C 29.9in /  1010.8hPa Calm     67% 0in /  0.0mm 0 W/m2
06:12 63 °F /  17.2 °C 51.8 °F /  11 °C 29.9in /  1010.8hPa Calm     67% 0in /  0.0mm 0 W/m2
06:17 63 °F /  17.2 °C 51.8 °F /  11 °C 29.9in /  1010.8hPa Calm   1mph /  1.6km/h 67% 0in /  0.0mm 0 W/m2
06:22 63.3 °F /  17.4 °C 51.8 °F /  11 °C 29.9in /  1010.8hPa WSW 0.9mph /  1.4km/h 1mph /  1.6km/h 66% 0in /  0.0mm 0 W/m2
06:27 63.3 °F /  17.4 °C 51.8 °F /  11 °C 29.9in /  1010.8hPa Calm     66% 0in /  0.0mm 5 W/m2
06:32 63.5 °F /  17.5 °C 52 °F /  11.1 °C 29.9in /  1010.8hPa Calm     66% 0in /  0.0mm 7 W/m2
06:37 63.5 °F /  17.5 °C 52.3 °F /  11.3 °C 29.9in /  1010.8hPa Calm     67% 0in /  0.0mm 12 W/m2
06:42 63.7 °F /  17.6 °C 52.2 °F /  11.2 °C 29.9in /  1010.8hPa Calm     66% 0in /  0.0mm 16 W/m2
06:47 63.7 °F /  17.6 °C 52.5 °F /  11.4 °C 29.9in /  1010.8hPa Calm     67% 0in /  0.0mm 16 W/m2
06:52 63.9 °F /  17.7 °C 52.7 °F /  11.5 °C 29.9in /  1011.2hPa Calm     67% 0in /  0.0mm 18 W/m2
06:57 63.9 °F /  17.7 °C 52.7 °F /  11.5 °C 29.9in /  1010.8hPa Calm     67% 0in /  0.0mm 23 W/m2
07:07 63.9 °F /  17.7 °C 53.1 °F /  11.7 °C 29.9in /  1010.8hPa Calm   1mph /  1.6km/h 68% 0in /  0.0mm 39 W/m2
07:12 64 °F /  17.8 °C 52.9 °F /  11.6 °C 29.9in /  1010.8hPa Calm     67% 0in /  0.0mm 39 W/m2
07:17 64.2 °F /  17.9 °C 53.1 °F /  11.7 °C 29.9in /  1011.2hPa Calm   1mph /  1.6km/h 67% 0in /  0.0mm 42 W/m2
07:22 64.2 °F /  17.9 °C 53.1 °F /  11.7 °C 29.9in /  1010.8hPa Calm   1mph /  1.6km/h 67% 0in /  0.0mm 42 W/m2
07:27 64.4 °F /  18 °C 53.2 °F /  11.8 °C 29.9in /  1010.8hPa Calm     67% 0in /  0.0mm 39 W/m2
07:32 64.6 °F /  18.1 °C 53.4 °F /  11.9 °C 29.9in /  1010.8hPa Calm   1mph /  1.6km/h 67% 0in /  0.0mm 44 W/m2
07:37 64.6 °F /  18.1 °C 53.4 °F /  11.9 °C 29.9in /  1010.8hPa Calm     67% 0in /  0.0mm 53 W/m2
07:42 64.6 °F /  18.1 °C 53.4 °F /  11.9 °C 29.9in /  1010.8hPa Calm     67% 0in /  0.0mm 56 W/m2
07:47 64.6 °F /  18.1 °C 53.4 °F /  11.9 °C 29.9in /  1010.8hPa Calm   1mph /  1.6km/h 67% 0in /  0.0mm 49 W/m2
07:52 64.6 °F /  18.1 °C 52.5 °F /  11.4 °C 29.9in /  1010.8hPa Calm     65% 0in /  0.0mm 42 W/m2
07:57 64.8 °F /  18.2 °C 53.6 °F /  12 °C 29.9in /  1011.2hPa Calm     67% 0in /  0.0mm 40 W/m2
08:02 64.8 °F /  18.2 °C 54 °F /  12.2 °C 29.9in /  1011.2hPa Calm     68% 0in /  0.0mm 46 W/m2
08:07 64.9 °F /  18.3 °C 53.8 °F /  12.1 °C 29.9in /  1011.2hPa Calm     67% 0in /  0.0mm 53 W/m2
08:12 64.9 °F /  18.3 °C 54.1 °F /  12.3 °C 29.9in /  1011.2hPa Calm     68% 0in /  0.0mm 53 W/m2
08:17 64.9 °F /  18.3 °C 54.1 °F /  12.3 °C 29.9in /  1011.2hPa Calm     68% 0in /  0.0mm 46 W/m2
08:22 64.9 °F /  18.3 °C 54.1 °F /  12.3 °C 29.9in /  1011.2hPa Calm     68% 0in /  0.0mm 44 W/m2
08:27 65.1 °F /  18.4 °C 54.7 °F /  12.6 °C 29.9in /  1011.2hPa Calm     69% 0in /  0.0mm 46 W/m2
08:32 65.1 °F /  18.4 °C 54.7 °F /  12.6 °C 29.9in /  1011.2hPa Calm     69% 0in /  0.0mm 46 W/m2
08:37 65.1 °F /  18.4 °C 54.7 °F /  12.6 °C 29.9in /  1011.2hPa WSW 0.9mph /  1.4km/h 1mph /  1.6km/h 69% 0in /  0.0mm 51 W/m2
08:42 65.1 °F /  18.4 °C 54.3 °F /  12.4 °C 29.9in /  1011.5hPa WSW 0.9mph /  1.4km/h 2mph /  3.2km/h 68% 0in /  0.0mm 51 W/m2
08:47 65.3 °F /  18.5 °C 54.5 °F /  12.5 °C 29.9in /  1011.5hPa WSW 0.9mph /  1.4km/h 3mph /  4.8km/h 68% 0in /  0.0mm 63 W/m2
08:52 65.5 °F /  18.6 °C 54.3 °F /  12.4 °C 29.9in /  1011.5hPa Calm   2mph /  3.2km/h 67% 0in /  0.0mm 86 W/m2
08:57 65.8 °F /  18.8 °C 53.2 °F /  11.8 °C 29.9in /  1011.5hPa NNW 2mph /  3.2km/h 3mph /  4.8km/h 64% 0in /  0.0mm 102 W/m2
09:02 66.4 °F /  19.1 °C 52.9 °F /  11.6 °C 29.9in /  1011.5hPa WNW 4mph /  6.4km/h 4mph /  6.4km/h 62% 0in /  0.0mm 128 W/m2
09:07 66.7 °F /  19.3 °C 52.9 °F /  11.6 °C 29.9in /  1011.5hPa West 2mph /  3.2km/h 3mph /  4.8km/h 61% 0in /  0.0mm 141 W/m2
09:12 66.9 °F /  19.4 °C 53.1 °F /  11.7 °C 29.9in /  1011.5hPa WSW 4.9mph /  7.9km/h 8mph /  12.9km/h 61% 0in /  0.0mm 169 W/m2
09:17 67.1 °F /  19.5 °C 53.2 °F /  11.8 °C 29.9in /  1011.9hPa WNW 4.9mph /  7.9km/h 8mph /  12.9km/h 61% 0in /  0.0mm 220 W/m2
09:22 67.3 °F /  19.6 °C 52.9 °F /  11.6 °C 29.9in /  1011.5hPa West 6mph /  9.7km/h 7mph /  11.3km/h 60% 0in /  0.0mm 230 W/m2
09:27 67.5 °F /  19.7 °C 53.1 °F /  11.7 °C 29.9in /  1011.9hPa West 6mph /  9.7km/h 6mph /  9.7km/h 60% 0in /  0.0mm 200 W/m2
09:32 67.8 °F /  19.9 °C 52.9 °F /  11.6 °C 29.9in /  1011.9hPa WNW 2.9mph /  4.7km/h 7mph /  11.3km/h 59% 0in /  0.0mm 178 W/m2
09:37 68 °F /  20 °C 52.2 °F /  11.2 °C 29.9in /  1011.9hPa West 6mph /  9.7km/h 7mph /  11.3km/h 57% 0in /  0.0mm 199 W/m2
09:42 68.2 °F /  20.1 °C 52.3 °F /  11.3 °C 29.9in /  1011.9hPa NW 2.9mph /  4.7km/h 7mph /  11.3km/h 57% 0in /  0.0mm 258 W/m2
09:47 68.5 °F /  20.3 °C 52.2 °F /  11.2 °C 29.9in /  1011.9hPa WSW 6.9mph /  11.1km/h 9mph /  14.5km/h 56% 0in /  0.0mm 236 W/m2
09:52 68.9 °F /  20.5 °C 51.6 °F /  10.9 °C 29.9in /  1011.9hPa West 4mph /  6.4km/h 7mph /  11.3km/h 54% 0in /  0.0mm 271 W/m2
09:57 70 °F /  21.1 °C 52 °F /  11.1 °C 29.9in /  1011.9hPa West 8.9mph /  14.3km/h 9mph /  14.5km/h 53% 0in /  0.0mm 666 W/m2
10:02 70.5 °F /  21.4 °C 51.4 °F /  10.8 °C 29.9in /  1011.9hPa WNW 2mph /  3.2km/h 4mph /  6.4km/h 51% 0in /  0.0mm 316 W/m2
10:07 71.1 °F /  21.7 °C 52 °F /  11.1 °C 29.9in /  1011.9hPa North 4mph /  6.4km/h 5mph /  8km/h 51% 0in /  0.0mm 288 W/m2
10:12 71.1 °F /  21.7 °C 51.4 °F /  10.8 °C 29.9in /  1011.9hPa WNW 4mph /  6.4km/h 4mph /  6.4km/h 50% 0in /  0.0mm 279 W/m2
10:17 71.4 °F /  21.9 °C 51.8 °F /  11 °C 29.9in /  1011.9hPa West 2.9mph /  4.7km/h 3mph /  4.8km/h 50% 0in /  0.0mm 497 W/m2
10:22 71.8 °F /  22.1 °C 50.5 °F /  10.3 °C 29.9in /  1011.9hPa WSW 6.9mph /  11.1km/h 9mph /  14.5km/h 47% 0in /  0.0mm 294 W/m2
10:27 71.8 °F /  22.1 °C 50.5 °F /  10.3 °C 29.9in /  1011.9hPa West 6mph /  9.7km/h 9mph /  14.5km/h 47% 0in /  0.0mm 448 W/m2
10:32 72.1 °F /  22.3 °C 50.2 °F /  10.1 °C 29.9in /  1011.9hPa NW 2mph /  3.2km/h 6mph /  9.7km/h 46% 0in /  0.0mm 499 W/m2
10:37 72.9 °F /  22.7 °C 50.9 °F /  10.5 °C 29.9in /  1011.9hPa WNW 4mph /  6.4km/h 9mph /  14.5km/h 46% 0in /  0.0mm 557 W/m2
10:42 73.2 °F /  22.9 °C 48.7 °F /  9.3 °C 29.9in /  1011.9hPa WNW 2.9mph /  4.7km/h 7mph /  11.3km/h 42% 0in /  0.0mm 413 W/m2
10:47 73.2 °F /  22.9 °C 49.5 °F /  9.7 °C 29.9in /  1011.9hPa West 6mph /  9.7km/h 7mph /  11.3km/h 43% 0in /  0.0mm 366 W/m2
10:52 73.2 °F /  22.9 °C 50 °F /  10 °C 29.9in /  1012.2hPa WSW 4mph /  6.4km/h 6mph /  9.7km/h 44% 0in /  0.0mm 327 W/m2
10:57 72.9 °F /  22.7 °C 50.4 °F /  10.2 °C 29.9in /  1011.9hPa West 6mph /  9.7km/h 6mph /  9.7km/h 45% 0in /  0.0mm 311 W/m2
11:02 72.9 °F /  22.7 °C 49.6 °F /  9.8 °C 29.9in /  1011.9hPa NNW 2mph /  3.2km/h 5mph /  8km/h 44% 0in /  0.0mm 334 W/m2
11:07 72.9 °F /  22.7 °C 50.4 °F /  10.2 °C 29.9in /  1012.2hPa WNW 2.9mph /  4.7km/h 4mph /  6.4km/h 45% 0in /  0.0mm 327 W/m2
11:12 72.7 °F /  22.6 °C 49.5 °F /  9.7 °C 29.9in /  1012.2hPa WNW 4.9mph /  7.9km/h 7mph /  11.3km/h 44% 0in /  0.0mm 304 W/m2
11:17 72.7 °F /  22.6 °C 49.5 °F /  9.7 °C 29.9in /  1012.2hPa NW 2.9mph /  4.7km/h 8mph /  12.9km/h 44% 0in /  0.0mm 304 W/m2
11:22 72.7 °F /  22.6 °C 50.2 °F /  10.1 °C 29.9in /  1012.2hPa WSW 2.9mph /  4.7km/h 6mph /  9.7km/h 45% 0in /  0.0mm 292 W/m2
11:27 72.7 °F /  22.6 °C 50.2 °F /  10.1 °C 29.9in /  1012.2hPa WNW 0.9mph /  1.4km/h 8mph /  12.9km/h 45% 0in /  0.0mm 257 W/m2
11:32 72.7 °F /  22.6 °C 50.2 °F /  10.1 °C 29.9in /  1012.2hPa NNW 4mph /  6.4km/h 7mph /  11.3km/h 45% 0in /  0.0mm 306 W/m2
11:37 72.3 °F /  22.4 °C 49.8 °F /  9.9 °C 29.9in /  1012.2hPa WNW 2.9mph /  4.7km/h 6mph /  9.7km/h 45% 0in /  0.0mm 272 W/m2
11:42 72.1 °F /  22.3 °C 50.2 °F /  10.1 °C 29.9in /  1012.2hPa NNW 2.9mph /  4.7km/h 3mph /  4.8km/h 46% 0in /  0.0mm 320 W/m2
11:47 72.1 °F /  22.3 °C 50.7 °F /  10.4 °C 29.9in /  1012.2hPa WNW 2mph /  3.2km/h 4mph /  6.4km/h 47% 0in /  0.0mm 325 W/m2
11:52 72.3 °F /  22.4 °C 50.4 °F /  10.2 °C 29.9in /  1012.2hPa WNW 4mph /  6.4km/h 4mph /  6.4km/h 46% 0in /  0.0mm 369 W/m2
11:57 72.5 °F /  22.5 °C 50.5 °F /  10.3 °C 29.9in /  1012.2hPa NNW 2mph /  3.2km/h 4mph /  6.4km/h 46% 0in /  0.0mm 424 W/m2
12:02 72.9 °F /  22.7 °C 50.9 °F /  10.5 °C 29.9in /  1012.2hPa WNW 4mph /  6.4km/h 8mph /  12.9km/h 46% 0in /  0.0mm 403 W/m2
12:08 73.4 °F /  23 °C 52 °F /  11.1 °C 29.9in /  1012.2hPa NW 2mph /  3.2km/h 5mph /  8km/h 47% 0in /  0.0mm 758 W/m2
12:13 73.9 °F /  23.3 °C 50.7 °F /  10.4 °C 29.9in /  1012.2hPa West 2.9mph /  4.7km/h 10mph /  16.1km/h 44% 0in /  0.0mm 533 W/m2
12:18 74.1 °F /  23.4 °C 52 °F /  11.1 °C 29.9in /  1012.2hPa WSW 2.9mph /  4.7km/h 8mph /  12.9km/h 46% 0in /  0.0mm 415 W/m2
12:23 74.5 °F /  23.6 °C 51.1 °F /  10.6 °C 29.9in /  1012.2hPa SW 4mph /  6.4km/h 11mph /  17.7km/h 44% 0in /  0.0mm 380 W/m2
12:28 74.7 °F /  23.7 °C 53.1 °F /  11.7 °C 29.9in /  1012.2hPa WNW 4mph /  6.4km/h 7mph /  11.3km/h 47% 0in /  0.0mm 450 W/m2
12:33 75.4 °F /  24.1 °C 52.5 °F /  11.4 °C 29.9in /  1012.2hPa NW 4.9mph /  7.9km/h 10mph /  16.1km/h 45% 0in /  0.0mm 533 W/m2
12:38 75.4 °F /  24.1 °C 53.2 °F /  11.8 °C 29.9in /  1012.2hPa SW 2.9mph /  4.7km/h 3mph /  4.8km/h 46% 0in /  0.0mm 439 W/m2
12:43 75.7 °F /  24.3 °C 52.9 °F /  11.6 °C 29.9in /  1012.2hPa WSW 4.9mph /  7.9km/h 10mph /  16.1km/h 45% 0in /  0.0mm 501 W/m2
12:48 75.7 °F /  24.3 °C 52.9 °F /  11.6 °C 29.9in /  1012.2hPa WSW 6.9mph /  11.1km/h 7mph /  11.3km/h 45% 0in /  0.0mm 471 W/m2
12:53 75.6 °F /  24.2 °C 53.2 °F /  11.8 °C 29.9in /  1012.2hPa WSW 8.1mph /  13km/h 9mph /  14.5km/h 46% 0in /  0.0mm 533 W/m2
12:58 75.6 °F /  24.2 °C 52.7 °F /  11.5 °C 29.9in /  1012.2hPa West 2mph /  3.2km/h 4mph /  6.4km/h 45% 0in /  0.0mm 443 W/m2
13:03 75.7 °F /  24.3 °C 52.3 °F /  11.3 °C 29.9in /  1012.2hPa NNE 2.9mph /  4.7km/h 5mph /  8km/h 44% 0in /  0.0mm 457 W/m2
13:08 76.3 °F /  24.6 °C 52.2 °F /  11.2 °C 29.9in /  1012.2hPa SW 4mph /  6.4km/h 13mph /  20.9km/h 43% 0in /  0.0mm 656 W/m2
13:13 76.5 °F /  24.7 °C 52.9 °F /  11.6 °C 29.9in /  1012.2hPa West 8.1mph /  13km/h 9mph /  14.5km/h 44% 0in /  0.0mm 540 W/m2
13:18 75.9 °F /  24.4 °C 52.5 °F /  11.4 °C 29.9in /  1012.2hPa WNW 4mph /  6.4km/h 13mph /  20.9km/h 44% 0in /  0.0mm 547 W/m2
13:23 75.7 °F /  24.3 °C 52.9 °F /  11.6 °C 29.9in /  1012.2hPa NW 4mph /  6.4km/h 13mph /  20.9km/h 45% 0in /  0.0mm 547 W/m2
13:28 75.9 °F /  24.4 °C 53.1 °F /  11.7 °C 29.9in /  1012.2hPa SSW 4mph /  6.4km/h 8mph /  12.9km/h 45% 0in /  0.0mm 889 W/m2
13:34 75.9 °F /  24.4 °C 53.1 °F /  11.7 °C 29.9in /  1011.9hPa West 6mph /  9.7km/h 9mph /  14.5km/h 45% 0in /  0.0mm 1090 W/m2
13:39 76.5 °F /  24.7 °C 54.1 °F /  12.3 °C 29.9in /  1011.9hPa NW 4mph /  6.4km/h 6mph /  9.7km/h 46% 0in /  0.0mm 638 W/m2
13:44 77.4 °F /  25.2 °C 53.8 °F /  12.1 °C 29.9in /  1011.9hPa WNW 4.9mph /  7.9km/h 5mph /  8km/h 44% 0in /  0.0mm 990 W/m2
13:49 78.3 °F /  25.7 °C 53.2 °F /  11.8 °C 29.9in /  1011.9hPa West 12.1mph /  19.5km/h 14mph /  22.5km/h 42% 0in /  0.0mm 758 W/m2
13:54 78.4 °F /  25.8 °C 53.4 °F /  11.9 °C 29.9in /  1011.9hPa WSW 4.9mph /  7.9km/h 10mph /  16.1km/h 42% 0in /  0.0mm 1021 W/m2
13:59 78.4 °F /  25.8 °C 52.7 °F /  11.5 °C 29.9in /  1011.9hPa NW 14mph /  22.5km/h 14mph /  22.5km/h 41% 0in /  0.0mm 840 W/m2
14:04 78.4 °F /  25.8 °C 53.4 °F /  11.9 °C 29.9in /  1011.9hPa WNW 2mph /  3.2km/h 9mph /  14.5km/h 42% 0in /  0.0mm 1055 W/m2
14:09 79 °F /  26.1 °C 53.2 °F /  11.8 °C 29.9in /  1011.5hPa West 2.9mph /  4.7km/h 10mph /  16.1km/h 41% 0in /  0.0mm 1048 W/m2
14:14 79.3 °F /  26.3 °C 53.6 °F /  12 °C 29.9in /  1011.9hPa NW 4mph /  6.4km/h 5mph /  8km/h 41% 0in /  0.0mm 1063 W/m2
14:19 79.3 °F /  26.3 °C 52.9 °F /  11.6 °C 29.9in /  1011.5hPa NW 2mph /  3.2km/h 9mph /  14.5km/h 40% 0in /  0.0mm 958 W/m2
14:24 78.8 °F /  26 °C 53.8 °F /  12.1 °C 29.9in /  1011.9hPa WSW 0.9mph /  1.4km/h 9mph /  14.5km/h 42% 0in /  0.0mm 1069 W/m2
14:29 79 °F /  26.1 °C 53.2 °F /  11.8 °C 29.9in /  1011.5hPa WNW 14.1mph /  22.7km/h 14mph /  22.5km/h 41% 0in /  0.0mm 984 W/m2
14:34 78.3 °F /  25.7 °C 52.7 °F /  11.5 °C 29.9in /  1011.9hPa West 4mph /  6.4km/h 8mph /  12.9km/h 41% 0in /  0.0mm 288 W/m2
14:39 78.3 °F /  25.7 °C 52.7 °F /  11.5 °C 29.9in /  1011.9hPa WNW 2.9mph /  4.7km/h 10mph /  16.1km/h 41% 0in /  0.0mm 731 W/m2
14:44 78.6 °F /  25.9 °C 53.6 °F /  12 °C 29.9in /  1011.5hPa WNW 4mph /  6.4km/h 5mph /  8km/h 42% 0in /  0.0mm 1055 W/m2
14:49 79 °F /  26.1 °C 53.2 °F /  11.8 °C 29.9in /  1011.5hPa NW 6mph /  9.7km/h 10mph /  16.1km/h 41% 0in /  0.0mm 1041 W/m2
14:54 79 °F /  26.1 °C 53.2 °F /  11.8 °C 29.9in /  1011.5hPa Calm   8mph /  12.9km/h 41% 0in /  0.0mm 1025 W/m2
14:59 79.5 °F /  26.4 °C 53.8 °F /  12.1 °C 29.9in /  1011.5hPa NW 2.9mph /  4.7km/h 13mph /  20.9km/h 41% 0in /  0.0mm 1104 W/m2
15:04 79.5 °F /  26.4 °C 53.8 °F /  12.1 °C 29.9in /  1011.5hPa NNW 4mph /  6.4km/h 7mph /  11.3km/h 41% 0in /  0.0mm 1179 W/m2
15:09 79.2 °F /  26.2 °C 54.7 °F /  12.6 °C 29.9in /  1011.5hPa West 6.9mph /  11.1km/h 14mph /  22.5km/h 43% 0in /  0.0mm 376 W/m2
15:14 78.3 °F /  25.7 °C 55.2 °F /  12.9 °C 29.9in /  1011.5hPa WNW 8.1mph /  13km/h 13mph /  20.9km/h 45% 0in /  0.0mm 318 W/m2
15:19 77.9 °F /  25.5 °C 55.4 °F /  13 °C 29.9in /  1011.5hPa NW 8.1mph /  13km/h 8mph /  12.9km/h 46% 0in /  0.0mm 341 W/m2
15:24 78.3 °F /  25.7 °C 55.2 °F /  12.9 °C 29.9in /  1011.5hPa NW 4mph /  6.4km/h 12mph /  19.3km/h 45% 0in /  0.0mm 689 W/m2
15:29 78.3 °F /  25.7 °C 55.2 °F /  12.9 °C 29.9in /  1011.5hPa WNW 2.9mph /  4.7km/h 10mph /  16.1km/h 45% 0in /  0.0mm 396 W/m2
15:34 78.1 °F /  25.6 °C 55.6 °F /  13.1 °C 29.9in /  1011.2hPa WNW 6.9mph /  11.1km/h 9mph /  14.5km/h 46% 0in /  0.0mm 278 W/m2
15:39 77.7 °F /  25.4 °C 55.2 °F /  12.9 °C 29.9in /  1011.2hPa WNW 6.9mph /  11.1km/h 9mph /  14.5km/h 46% 0in /  0.0mm 258 W/m2
15:44 77.5 °F /  25.3 °C 55.8 °F /  13.2 °C 29.9in /  1011.5hPa NNW 4mph /  6.4km/h 11mph /  17.7km/h 47% 0in /  0.0mm 283 W/m2
15:49 77.5 °F /  25.3 °C 55.8 °F /  13.2 °C 29.9in /  1011.5hPa West 11mph /  17.7km/h 12mph /  19.3km/h 47% 0in /  0.0mm 1002 W/m2
15:54 78.6 °F /  25.9 °C 56.1 °F /  13.4 °C 29.9in /  1011.2hPa NNW 6mph /  9.7km/h 13mph /  20.9km/h 46% 0in /  0.0mm 932 W/m2
15:59 79 °F /  26.1 °C 56.5 °F /  13.6 °C 29.9in /  1011.2hPa SW 6.9mph /  11.1km/h 9mph /  14.5km/h 46% 0in /  0.0mm 900 W/m2
16:04 79.3 °F /  26.3 °C 56.1 °F /  13.4 °C 29.9in /  1011.2hPa WSW 8.1mph /  13km/h 17mph /  27.4km/h 45% 0in /  0.0mm 854 W/m2
16:09 79.9 °F /  26.6 °C 56.7 °F /  13.7 °C 29.9in /  1011.2hPa West 4mph /  6.4km/h 7mph /  11.3km/h 45% 0in /  0.0mm 874 W/m2
16:14 79.2 °F /  26.2 °C 55.9 °F /  13.3 °C 29.9in /  1011.2hPa NNW 8.1mph /  13km/h 11mph /  17.7km/h 45% 0in /  0.0mm 248 W/m2
16:19 78.1 °F /  25.6 °C 56.3 °F /  13.5 °C 29.9in /  1011.2hPa WNW 6.9mph /  11.1km/h 7mph /  11.3km/h 47% 0in /  0.0mm 218 W/m2
16:24 77.7 °F /  25.4 °C 56.5 °F /  13.6 °C 29.9in /  1011.5hPa WNW 4mph /  6.4km/h 12mph /  19.3km/h 48% 0in /  0.0mm 264 W/m2
16:29 77.4 °F /  25.2 °C 56.1 °F /  13.4 °C 29.9in /  1011.2hPa West 6mph /  9.7km/h 11mph /  17.7km/h 48% 0in /  0.0mm 255 W/m2
16:34 77 °F /  25 °C 55.8 °F /  13.2 °C 29.9in /  1011.2hPa NW 4mph /  6.4km/h 8mph /  12.9km/h 48% 0in /  0.0mm 279 W/m2
16:39 76.8 °F /  24.9 °C 56.8 °F /  13.8 °C 29.9in /  1011.2hPa NW 8.1mph /  13km/h 11mph /  17.7km/h 50% 0in /  0.0mm 489 W/m2
16:44 77.4 °F /  25.2 °C 57.2 °F /  14 °C 29.9in /  1011.2hPa West 6mph /  9.7km/h 8mph /  12.9km/h 50% 0in /  0.0mm 278 W/m2
16:49 78.3 °F /  25.7 °C 58.1 °F /  14.5 °C 29.9in /  1011.2hPa West 8.9mph /  14.3km/h 9mph /  14.5km/h 50% 0in /  0.0mm 722 W/m2
16:54 78.6 °F /  25.9 °C 56.7 °F /  13.7 °C 29.9in /  1011.2hPa WNW 11mph /  17.7km/h 11mph /  17.7km/h 47% 0in /  0.0mm 315 W/m2
16:59 78.1 °F /  25.6 °C 56.3 °F /  13.5 °C 29.9in /  1011.2hPa WSW 4.9mph /  7.9km/h 9mph /  14.5km/h 47% 0in /  0.0mm 330 W/m2
17:04 78.1 °F /  25.6 °C 56.8 °F /  13.8 °C 29.9in /  1011.2hPa West 6.9mph /  11.1km/h 8mph /  12.9km/h 48% 0in /  0.0mm 664 W/m2
17:09 78.1 °F /  25.6 °C 56.3 °F /  13.5 °C 29.9in /  1011.2hPa WNW 4.9mph /  7.9km/h 7mph /  11.3km/h 47% 0in /  0.0mm 156 W/m2
17:14 77.2 °F /  25.1 °C 57 °F /  13.9 °C 29.9in /  1011.5hPa West 6.9mph /  11.1km/h 11mph /  17.7km/h 50% 0in /  0.0mm 135 W/m2
17:19 75.6 °F /  24.2 °C 58.3 °F /  14.6 °C 29.9in /  1011.5hPa WNW 10.1mph /  16.3km/h 18mph /  29km/h 55% 0in /  0.0mm 132 W/m2
17:25 74.1 °F /  23.4 °C 57.9 °F /  14.4 °C 29.9in /  1011.9hPa NW 8.9mph /  14.3km/h 13mph /  20.9km/h 57% 0in /  0.0mm 118 W/m2
17:30 72.9 °F /  22.7 °C 58.1 °F /  14.5 °C 29.9in /  1011.9hPa NW 8.1mph /  13km/h 14mph /  22.5km/h 60% 0in /  0.0mm 111 W/m2
17:35 72.1 °F /  22.3 °C 57 °F /  13.9 °C 29.9in /  1011.9hPa NNW 4.9mph /  7.9km/h 13mph /  20.9km/h 59% 0in /  0.0mm 111 W/m2
17:40 71.4 °F /  21.9 °C 57.2 °F /  14 °C 29.9in /  1011.9hPa NW 4mph /  6.4km/h 9mph /  14.5km/h 61% 0in /  0.0mm 118 W/m2
17:45 71.2 °F /  21.8 °C 57.6 °F /  14.2 °C 29.9in /  1011.9hPa NNW 0.9mph /  1.4km/h 8mph /  12.9km/h 62% 0in /  0.0mm 123 W/m2
17:50 71.2 °F /  21.8 °C 58.5 °F /  14.7 °C 29.9in /  1011.9hPa West 2mph /  3.2km/h 5mph /  8km/h 64% 0in /  0.0mm 160 W/m2
17:55 71.2 °F /  21.8 °C 57.9 °F /  14.4 °C 29.9in /  1011.9hPa WNW 2.9mph /  4.7km/h 7mph /  11.3km/h 63% 0in /  0.0mm 227 W/m2
18:00 71.8 °F /  22.1 °C 58.1 °F /  14.5 °C 29.9in /  1011.9hPa West 4mph /  6.4km/h 6mph /  9.7km/h 62% 0in /  0.0mm 448 W/m2
18:06 72.1 °F /  22.3 °C 57.6 °F /  14.2 °C 29.9in /  1011.9hPa NW 0.9mph /  1.4km/h 7mph /  11.3km/h 60% 0in /  0.0mm 309 W/m2
18:11 72.9 °F /  22.7 °C 57.2 °F /  14 °C 29.9in /  1011.9hPa WNW 0.9mph /  1.4km/h 5mph /  8km/h 58% 0in /  0.0mm 362 W/m2
18:16 73.6 °F /  23.1 °C 57.4 °F /  14.1 °C 29.9in /  1011.9hPa West 6mph /  9.7km/h 9mph /  14.5km/h 57% 0in /  0.0mm 332 W/m2
18:21 73.8 °F /  23.2 °C 57.6 °F /  14.2 °C 29.9in /  1011.9hPa WNW 0.9mph /  1.4km/h 4mph /  6.4km/h 57% 0in /  0.0mm 487 W/m2
18:26 74.7 °F /  23.7 °C 58.5 °F /  14.7 °C 29.9in /  1011.9hPa WNW 2mph /  3.2km/h 3mph /  4.8km/h 57% 0in /  0.0mm 443 W/m2
18:31 75.2 °F /  24 °C 58.5 °F /  14.7 °C 29.9in /  1011.9hPa NW 6.9mph /  11.1km/h 10mph /  16.1km/h 56% 0in /  0.0mm 206 W/m2
18:36 75.2 °F /  24 °C 58.5 °F /  14.7 °C 29.9in /  1011.9hPa WSW 4.9mph /  7.9km/h 8mph /  12.9km/h 56% 0in /  0.0mm 137 W/m2
18:41 75 °F /  23.9 °C 58.8 °F /  14.9 °C 29.9in /  1011.9hPa West 4mph /  6.4km/h 8mph /  12.9km/h 57% 0in /  0.0mm 130 W/m2
18:46 74.8 °F /  23.8 °C 59 °F /  15 °C 29.9in /  1011.9hPa WNW 2.9mph /  4.7km/h 7mph /  11.3km/h 58% 0in /  0.0mm 134 W/m2
18:51 74.7 °F /  23.7 °C 59.4 °F /  15.2 °C 29.9in /  1011.9hPa WNW 2.9mph /  4.7km/h 8mph /  12.9km/h 59% 0in /  0.0mm 132 W/m2
18:56 74.7 °F /  23.7 °C 59.4 °F /  15.2 °C 29.9in /  1011.9hPa NNW 0.9mph /  1.4km/h 4mph /  6.4km/h 59% 0in /  0.0mm 141 W/m2
19:01 74.7 °F /  23.7 °C 59.4 °F /  15.2 °C 29.9in /  1011.9hPa NNW 0.9mph /  1.4km/h 3mph /  4.8km/h 59% 0in /  0.0mm 142 W/m2
19:06 74.7 °F /  23.7 °C 59.4 °F /  15.2 °C 29.9in /  1011.9hPa NW 6mph /  9.7km/h 8mph /  12.9km/h 59% 0in /  0.0mm 142 W/m2
19:11 74.5 °F /  23.6 °C 59.2 °F /  15.1 °C 29.9in /  1011.9hPa WNW 6.9mph /  11.1km/h 7mph /  11.3km/h 59% 0in /  0.0mm 153 W/m2
19:16 74.5 °F /  23.6 °C 59.2 °F /  15.1 °C 29.9in /  1011.9hPa West 6mph /  9.7km/h 6mph /  9.7km/h 59% 0in /  0.0mm 169 W/m2
19:21 74.8 °F /  23.8 °C 59 °F /  15 °C 29.9in /  1011.9hPa WSW 2.9mph /  4.7km/h 9mph /  14.5km/h 58% 0in /  0.0mm 113 W/m2
19:26 74.8 °F /  23.8 °C 59 °F /  15 °C 29.9in /  1011.9hPa WSW 2mph /  3.2km/h 3mph /  4.8km/h 58% 0in /  0.0mm 107 W/m2
19:31 74.8 °F /  23.8 °C 59.5 °F /  15.3 °C 29.9in /  1011.9hPa West 2mph /  3.2km/h 8mph /  12.9km/h 59% 0in /  0.0mm 153 W/m2
19:36 74.8 °F /  23.8 °C 59 °F /  15 °C 29.9in /  1011.9hPa WSW 4.9mph /  7.9km/h 5mph /  8km/h 58% 0in /  0.0mm 81 W/m2
19:41 74.7 °F /  23.7 °C 58.8 °F /  14.9 °C 29.9in /  1011.9hPa WNW 2mph /  3.2km/h 7mph /  11.3km/h 58% 0in /  0.0mm 72 W/m2
19:46 74.7 °F /  23.7 °C 58.8 °F /  14.9 °C 29.9in /  1011.9hPa SW 4mph /  6.4km/h 6mph /  9.7km/h 58% 0in /  0.0mm 58 W/m2
19:51 74.3 °F /  23.5 °C 59 °F /  15 °C 29.9in /  1011.9hPa West 4mph /  6.4km/h 8mph /  12.9km/h 59% 0in /  0.0mm 63 W/m2
19:56 74.1 °F /  23.4 °C 58.8 °F /  14.9 °C 29.9in /  1011.9hPa WSW 4mph /  6.4km/h 4mph /  6.4km/h 59% 0in /  0.0mm 51 W/m2
20:01 73.9 °F /  23.3 °C 59.2 °F /  15.1 °C 29.9in /  1011.9hPa WNW 4.9mph /  7.9km/h 10mph /  16.1km/h 60% 0in /  0.0mm 42 W/m2
20:11 73.2 °F /  22.9 °C 59.4 °F /  15.2 °C 29.9in /  1011.9hPa WNW 2mph /  3.2km/h 4mph /  6.4km/h 62% 0in /  0.0mm 58 W/m2
20:16 73.2 °F /  22.9 °C 59.4 °F /  15.2 °C 29.9in /  1012.2hPa NW 2.9mph /  4.7km/h 3mph /  4.8km/h 62% 0in /  0.0mm 102 W/m2
20:21 73.8 °F /  23.2 °C 59.9 °F /  15.5 °C 29.9in /  1012.2hPa WNW 4.9mph /  7.9km/h 6mph /  9.7km/h 62% 0in /  0.0mm 132 W/m2
20:26 73.9 °F /  23.3 °C 59.7 °F /  15.4 °C 29.9in /  1012.2hPa NW 6mph /  9.7km/h 10mph /  16.1km/h 61% 0in /  0.0mm 125 W/m2
20:31 73.9 °F /  23.3 °C 59.7 °F /  15.4 °C 29.9in /  1012.2hPa North 2.9mph /  4.7km/h 5mph /  8km/h 61% 0in /  0.0mm 114 W/m2
20:36 73.8 °F /  23.2 °C 59.9 °F /  15.5 °C 29.9in /  1012.2hPa North 2mph /  3.2km/h 10mph /  16.1km/h 62% 0in /  0.0mm 51 W/m2
20:41 73.2 °F /  22.9 °C 59.4 °F /  15.2 °C 29.9in /  1012.2hPa WNW 4mph /  6.4km/h 5mph /  8km/h 62% 0in /  0.0mm 39 W/m2
20:46 72.9 °F /  22.7 °C 59 °F /  15 °C 29.9in /  1012.2hPa WNW 4.9mph /  7.9km/h 8mph /  12.9km/h 62% 0in /  0.0mm 32 W/m2
20:51 72.7 °F /  22.6 °C 59.4 °F /  15.2 °C 29.9in /  1012.2hPa WNW 2mph /  3.2km/h 3mph /  4.8km/h 63% 0in /  0.0mm 33 W/m2
20:56 72.7 °F /  22.6 °C 59.4 °F /  15.2 °C 29.9in /  1012.2hPa NW 2.9mph /  4.7km/h 7mph /  11.3km/h 63% 0in /  0.0mm 33 W/m2
21:01 72.7 °F /  22.6 °C 59.4 °F /  15.2 °C 29.9in /  1012.2hPa WSW 4mph /  6.4km/h 5mph /  8km/h 63% 0in /  0.0mm 35 W/m2
21:06 72.7 °F /  22.6 °C 59.4 °F /  15.2 °C 29.9in /  1012.2hPa Calm   2mph /  3.2km/h 63% 0in /  0.0mm 25 W/m2
21:11 72.3 °F /  22.4 °C 59 °F /  15 °C 29.9in /  1012.2hPa Calm   2mph /  3.2km/h 63% 0in /  0.0mm 14 W/m2
21:16 72 °F /  22.2 °C 59.2 °F /  15.1 °C 29.9in /  1012.2hPa West 0.9mph /  1.4km/h 2mph /  3.2km/h 64% 0in /  0.0mm 11 W/m2
21:21 71.8 °F /  22.1 °C 59 °F /  15 °C 29.9in /  1012.2hPa WNW 0.9mph /  1.4km/h 2mph /  3.2km/h 64% 0in /  0.0mm 7 W/m2
21:26 71.2 °F /  21.8 °C 58.8 °F /  14.9 °C 29.9in /  1012.2hPa West 2mph /  3.2km/h 3mph /  4.8km/h 65% 0in /  0.0mm 0 W/m2
21:31 70.9 °F /  21.6 °C 59 °F /  15 °C 29.9in /  1012.5hPa West 2mph /  3.2km/h 4mph /  6.4km/h 66% 0in /  0.0mm 0 W/m2
21:36 70.5 °F /  21.4 °C 58.6 °F /  14.8 °C 29.9in /  1012.5hPa West 2mph /  3.2km/h 2mph /  3.2km/h 66% 0in /  0.0mm 0 W/m2
21:41 70.3 °F /  21.3 °C 58.8 °F /  14.9 °C 29.9in /  1012.5hPa Calm   4mph /  6.4km/h 67% 0in /  0.0mm 0 W/m2
21:46 70.2 °F /  21.2 °C 58.6 °F /  14.8 °C 29.9in /  1012.5hPa Calm   2mph /  3.2km/h 67% 0in /  0.0mm 0 W/m2
21:51 70 °F /  21.1 °C 59 °F /  15 °C 29.9in /  1012.5hPa West 0.9mph /  1.4km/h 1mph /  1.6km/h 68% 0in /  0.0mm 0 W/m2
21:56 69.6 °F /  20.9 °C 58.6 °F /  14.8 °C 29.9in /  1012.5hPa Calm   2mph /  3.2km/h 68% 0in /  0.0mm 0 W/m2
22:01 69.4 °F /  20.8 °C 58.8 °F /  14.9 °C 29.9in /  1012.9hPa West 0.9mph /  1.4km/h 1mph /  1.6km/h 69% 0in /  0.0mm 0 W/m2
22:11 68.9 °F /  20.5 °C 58.6 °F /  14.8 °C 29.9in /  1012.9hPa West 0.9mph /  1.4km/h 2mph /  3.2km/h 70% 0in /  0.0mm 0 W/m2
22:16 68.5 °F /  20.3 °C 58.8 °F /  14.9 °C 29.9in /  1012.9hPa Calm     71% 0in /  0.0mm 0 W/m2
22:21 68.4 °F /  20.2 °C 58.6 °F /  14.8 °C 29.9in /  1012.9hPa West 0.9mph /  1.4km/h 1mph /  1.6km/h 71% 0in /  0.0mm 0 W/m2
22:26 67.8 °F /  19.9 °C 58.5 °F /  14.7 °C 29.9in /  1012.9hPa West 0.9mph /  1.4km/h 1mph /  1.6km/h 72% 0in /  0.0mm 0 W/m2
22:31 67.5 °F /  19.7 °C 58.1 °F /  14.5 °C 29.9in /  1012.9hPa West 0.9mph /  1.4km/h 2mph /  3.2km/h 72% 0in /  0.0mm 0 W/m2
22:36 67.3 °F /  19.6 °C 58.3 °F /  14.6 °C 29.9in /  1012.9hPa Calm   1mph /  1.6km/h 73% 0in /  0.0mm 0 W/m2
22:41 66.9 °F /  19.4 °C 58.3 °F /  14.6 °C 29.9in /  1012.9hPa West 2mph /  3.2km/h 2mph /  3.2km/h 74% 0in /  0.0mm 0 W/m2
22:46 66.6 °F /  19.2 °C 58.5 °F /  14.7 °C 29.9in /  1012.9hPa West 0.9mph /  1.4km/h 1mph /  1.6km/h 75% 0in /  0.0mm 0 W/m2
22:51 66.4 °F /  19.1 °C 58.3 °F /  14.6 °C 29.9in /  1012.9hPa West 2mph /  3.2km/h 2mph /  3.2km/h 75% 0in /  0.0mm 0 W/m2
22:56 66 °F /  18.9 °C 58.3 °F /  14.6 °C 29.9in /  1012.9hPa Calm   1mph /  1.6km/h 76% 0in /  0.0mm 0 W/m2
23:01 65.7 °F /  18.7 °C 57.9 °F /  14.4 °C 29.9in /  1012.9hPa Calm     76% 0in /  0.0mm 0 W/m2
23:11 65.3 °F /  18.5 °C 57.9 °F /  14.4 °C 29.9in /  1012.9hPa Calm     77% 0in /  0.0mm 0 W/m2
23:16 64.9 °F /  18.3 °C 57.9 °F /  14.4 °C 29.9in /  1012.9hPa Calm     78% 0in /  0.0mm 0 W/m2
23:21 64.9 °F /  18.3 °C 57.9 °F /  14.4 °C 29.9in /  1012.9hPa Calm     78% 0in /  0.0mm 0 W/m2
23:26 64.8 °F /  18.2 °C 58.1 °F /  14.5 °C 29.9in /  1012.9hPa Calm     79% 0in /  0.0mm 0 W/m2
23:31 64.6 °F /  18.1 °C 57.9 °F /  14.4 °C 29.9in /  1012.9hPa Calm     79% 0in /  0.0mm 0 W/m2
23:36 64.2 °F /  17.9 °C 57.6 °F /  14.2 °C 29.9in /  1012.9hPa Calm     79% 0in /  0.0mm 0 W/m2
23:41 64 °F /  17.8 °C 57.7 °F /  14.3 °C 29.9in /  1012.9hPa Calm     80% 0in /  0.0mm 0 W/m2
23:46 64 °F /  17.8 °C 57.7 °F /  14.3 °C 29.9in /  1012.9hPa Calm     80% 0in /  0.0mm 0 W/m2
23:51 63.9 °F /  17.7 °C 57.6 °F /  14.2 °C 29.9in /  1012.9hPa Calm     80% 0in /  0.0mm 0 W/m2
23:56 63.9 °F /  17.7 °C 57.9 °F /  14.4 °C 29.9in /  1012.9hPa Calm     81% 0in /  0.0mm 0 W/m2
Juneau County Weather
Compliments of Weather Underground - 4 mb